sensor_id;sensor_type;location;lat;lon;timestamp;temperature;humidity
34837;DHT22;21053;50.848;4.652;2022-09-01T00:02:26;20.30;84.20
34837;DHT22;21053;50.848;4.652;2022-09-01T00:04:53;20.30;84.20
34837;DHT22;21053;50.848;4.652;2022-09-01T00:07:27;20.20;84.40
34837;DHT22;21053;50.848;4.652;2022-09-01T00:09:58;20.20;84.30
34837;DHT22;21053;50.848;4.652;2022-09-01T00:12:28;20.20;84.00
34837;DHT22;21053;50.848;4.652;2022-09-01T00:14:57;20.20;83.80
34837;DHT22;21053;50.848;4.652;2022-09-01T00:17:26;20.20;83.50
34837;DHT22;21053;50.848;4.652;2022-09-01T00:19:55;20.20;83.40
34837;DHT22;21053;50.848;4.652;2022-09-01T00:22:24;20.20;84.30
34837;DHT22;21053;50.848;4.652;2022-09-01T00:24:51;20.10;86.30
34837;DHT22;21053;50.848;4.652;2022-09-01T00:27:19;19.90;87.20
34837;DHT22;21053;50.848;4.652;2022-09-01T00:29:47;19.80;88.00
34837;DHT22;21053;50.848;4.652;2022-09-01T00:32:16;19.70;88.20
34837;DHT22;21053;50.848;4.652;2022-09-01T00:34:45;19.70;88.90
34837;DHT22;21053;50.848;4.652;2022-09-01T00:37:13;19.60;89.50
34837;DHT22;21053;50.848;4.652;2022-09-01T00:39:40;19.50;89.70
34837;DHT22;21053;50.848;4.652;2022-09-01T00:42:07;19.40;89.80
34837;DHT22;21053;50.848;4.652;2022-09-01T00:44:34;19.40;90.10
34837;DHT22;21053;50.848;4.652;2022-09-01T00:47:01;19.30;90.10
34837;DHT22;21053;50.848;4.652;2022-09-01T00:49:43;19.10;90.50
34837;DHT22;21053;50.848;4.652;2022-09-01T00:52:20;18.90;90.50
34837;DHT22;21053;50.848;4.652;2022-09-01T00:54:55;18.90;90.60
34837;DHT22;21053;50.848;4.652;2022-09-01T00:57:25;18.90;90.50
34837;DHT22;21053;50.848;4.652;2022-09-01T01:00:19;19.00;90.20
34837;DHT22;21053;50.848;4.652;2022-09-01T01:02:48;19.00;89.90
34837;DHT22;21053;50.848;4.652;2022-09-01T01:05:38;19.00;89.70
34837;DHT22;21053;50.848;4.652;2022-09-01T01:08:08;18.90;90.30
34837;DHT22;21053;50.848;4.652;2022-09-01T01:10:40;18.90;90.10
34837;DHT22;21053;50.848;4.652;2022-09-01T01:13:14;18.90;90.20
34837;DHT22;21053;50.848;4.652;2022-09-01T01:15:40;18.90;90.30
34837;DHT22;21053;50.848;4.652;2022-09-01T01:18:13;18.90;90.70
34837;DHT22;21053;50.848;4.652;2022-09-01T01:20:42;18.60;91.20
34837;DHT22;21053;50.848;4.652;2022-09-01T01:23:39;18.50;91.30
34837;DHT22;21053;50.848;4.652;2022-09-01T01:26:10;18.50;91.30
34837;DHT22;21053;50.848;4.652;2022-09-01T01:28:40;18.50;91.40
34837;DHT22;21053;50.848;4.652;2022-09-01T01:31:13;18.40;91.60
34837;DHT22;21053;50.848;4.652;2022-09-01T01:34:06;18.20;91.90
34837;DHT22;21053;50.848;4.652;2022-09-01T01:36:37;17.90;92.60
34837;DHT22;21053;50.848;4.652;2022-09-01T01:39:08;17.70;92.80
34837;DHT22;21053;50.848;4.652;2022-09-01T01:41:42;17.70;92.80
34837;DHT22;21053;50.848;4.652;2022-09-01T01:44:12;17.70;92.50
34837;DHT22;21053;50.848;4.652;2022-09-01T01:46:45;17.80;92.20
34837;DHT22;21053;50.848;4.652;2022-09-01T01:49:14;17.90;92.00
34837;DHT22;21053;50.848;4.652;2022-09-01T01:51:46;18.00;91.60
34837;DHT22;21053;50.848;4.652;2022-09-01T01:54:15;18.00;91.60
34837;DHT22;21053;50.848;4.652;2022-09-01T01:56:46;18.00;91.70
34837;DHT22;21053;50.848;4.652;2022-09-01T01:59:14;17.90;91.90
34837;DHT22;21053;50.848;4.652;2022-09-01T02:01:43;17.80;92.10
34837;DHT22;21053;50.848;4.652;2022-09-01T02:04:18;17.60;92.40
34837;DHT22;21053;50.848;4.652;2022-09-01T02:06:48;17.50;93.00
34837;DHT22;21053;50.848;4.652;2022-09-01T02:09:19;17.40;93.20
34837;DHT22;21053;50.848;4.652;2022-09-01T02:11:45;17.50;93.10
34837;DHT22;21053;50.848;4.652;2022-09-01T02:14:12;17.60;92.90
34837;DHT22;21053;50.848;4.652;2022-09-01T02:16:42;17.50;92.70
34837;DHT22;21053;50.848;4.652;2022-09-01T02:19:10;17.60;92.50
34837;DHT22;21053;50.848;4.652;2022-09-01T02:21:39;17.60;92.80
34837;DHT22;21053;50.848;4.652;2022-09-01T02:24:12;17.50;93.10
34837;DHT22;21053;50.848;4.652;2022-09-01T02:26:44;17.40;93.20
34837;DHT22;21053;50.848;4.652;2022-09-01T02:29:23;17.20;93.60
34837;DHT22;21053;50.848;4.652;2022-09-01T02:31:56;17.10;93.80
34837;DHT22;21053;50.848;4.652;2022-09-01T02:34:25;16.90;93.90
34837;DHT22;21053;50.848;4.652;2022-09-01T02:36:56;16.80;93.80
34837;DHT22;21053;50.848;4.652;2022-09-01T02:39:26;16.80;93.90
34837;DHT22;21053;50.848;4.652;2022-09-01T02:41:56;17.10;93.70
34837;DHT22;21053;50.848;4.652;2022-09-01T02:44:28;17.40;93.40
34837;DHT22;21053;50.848;4.652;2022-09-01T02:46:59;17.50;92.60
34837;DHT22;21053;50.848;4.652;2022-09-01T02:49:26;17.60;92.70
34837;DHT22;21053;50.848;4.652;2022-09-01T02:51:56;17.70;92.90
34837;DHT22;21053;50.848;4.652;2022-09-01T02:54:29;17.70;92.80
34837;DHT22;21053;50.848;4.652;2022-09-01T02:56:55;17.70;92.10
34837;DHT22;21053;50.848;4.652;2022-09-01T02:59:26;17.70;92.40
34837;DHT22;21053;50.848;4.652;2022-09-01T03:01:52;17.80;92.10
34837;DHT22;21053;50.848;4.652;2022-09-01T03:04:20;17.90;91.80
34837;DHT22;21053;50.848;4.652;2022-09-01T03:06:46;17.90;91.30
34837;DHT22;21053;50.848;4.652;2022-09-01T03:09:17;18.00;91.20
34837;DHT22;21053;50.848;4.652;2022-09-01T03:11:49;18.00;90.80
34837;DHT22;21053;50.848;4.652;2022-09-01T03:14:18;18.00;91.60
34837;DHT22;21053;50.848;4.652;2022-09-01T03:16:46;18.00;92.00
34837;DHT22;21053;50.848;4.652;2022-09-01T03:19:14;18.00;92.20
34837;DHT22;21053;50.848;4.652;2022-09-01T03:21:43;18.00;92.30
34837;DHT22;21053;50.848;4.652;2022-09-01T03:24:12;18.10;92.30
34837;DHT22;21053;50.848;4.652;2022-09-01T03:26:43;18.10;92.40
34837;DHT22;21053;50.848;4.652;2022-09-01T03:29:09;18.00;92.50
34837;DHT22;21053;50.848;4.652;2022-09-01T03:31:38;17.90;92.60
34837;DHT22;21053;50.848;4.652;2022-09-01T03:34:06;17.80;92.50
34837;DHT22;21053;50.848;4.652;2022-09-01T03:36:35;17.70;92.50
34837;DHT22;21053;50.848;4.652;2022-09-01T03:39:04;17.60;92.60
34837;DHT22;21053;50.848;4.652;2022-09-01T03:41:37;17.60;92.80
34837;DHT22;21053;50.848;4.652;2022-09-01T03:44:06;17.60;93.10
34837;DHT22;21053;50.848;4.652;2022-09-01T03:46:38;17.50;93.40
34837;DHT22;21053;50.848;4.652;2022-09-01T03:49:08;17.40;93.40
34837;DHT22;21053;50.848;4.652;2022-09-01T03:51:43;17.30;93.40
34837;DHT22;21053;50.848;4.652;2022-09-01T03:54:12;17.00;94.00
34837;DHT22;21053;50.848;4.652;2022-09-01T03:56:41;16.80;94.60
34837;DHT22;21053;50.848;4.652;2022-09-01T03:59:11;16.80;94.70
34837;DHT22;21053;50.848;4.652;2022-09-01T04:01:47;17.00;94.30
34837;DHT22;21053;50.848;4.652;2022-09-01T04:04:14;17.10;93.90
34837;DHT22;21053;50.848;4.652;2022-09-01T04:06:43;17.10;94.00
34837;DHT22;21053;50.848;4.652;2022-09-01T04:09:11;17.10;94.00
34837;DHT22;21053;50.848;4.652;2022-09-01T04:11:38;16.90;94.30
34837;DHT22;21053;50.848;4.652;2022-09-01T04:14:09;16.90;94.50
34837;DHT22;21053;50.848;4.652;2022-09-01T04:16:37;16.90;94.40
34837;DHT22;21053;50.848;4.652;2022-09-01T04:19:25;16.90;94.50
34837;DHT22;21053;50.848;4.652;2022-09-01T04:21:56;16.80;94.60
34837;DHT22;21053;50.848;4.652;2022-09-01T04:24:26;16.70;94.90
34837;DHT22;21053;50.848;4.652;2022-09-01T04:26:59;16.60;95.00
34837;DHT22;21053;50.848;4.652;2022-09-01T04:29:29;16.50;95.30
34837;DHT22;21053;50.848;4.652;2022-09-01T04:32:00;16.50;95.30
34837;DHT22;21053;50.848;4.652;2022-09-01T04:34:35;16.50;95.00
34837;DHT22;21053;50.848;4.652;2022-09-01T04:37:31;16.50;94.90
34837;DHT22;21053;50.848;4.652;2022-09-01T04:39:58;16.40;95.00
34837;DHT22;21053;50.848;4.652;2022-09-01T04:42:27;16.20;95.50
34837;DHT22;21053;50.848;4.652;2022-09-01T04:44:56;16.20;95.70
34837;DHT22;21053;50.848;4.652;2022-09-01T04:47:25;16.20;95.50
34837;DHT22;21053;50.848;4.652;2022-09-01T04:49:58;16.20;95.20
34837;DHT22;21053;50.848;4.652;2022-09-01T04:52:30;16.20;95.30
34837;DHT22;21053;50.848;4.652;2022-09-01T04:54:59;16.10;95.50
34837;DHT22;21053;50.848;4.652;2022-09-01T04:57:27;15.90;95.90
34837;DHT22;21053;50.848;4.652;2022-09-01T04:59:54;15.80;96.20
34837;DHT22;21053;50.848;4.652;2022-09-01T05:02:23;15.80;96.10
34837;DHT22;21053;50.848;4.652;2022-09-01T05:04:51;15.90;95.80
34837;DHT22;21053;50.848;4.652;2022-09-01T05:07:20;15.80;95.80
34837;DHT22;21053;50.848;4.652;2022-09-01T05:09:49;15.70;96.00
34837;DHT22;21053;50.848;4.652;2022-09-01T05:12:36;15.60;96.40
34837;DHT22;21053;50.848;4.652;2022-09-01T05:15:05;15.60;96.40
34837;DHT22;21053;50.848;4.652;2022-09-01T05:17:34;15.70;96.20
34837;DHT22;21053;50.848;4.652;2022-09-01T05:20:06;15.80;96.00
34837;DHT22;21053;50.848;4.652;2022-09-01T05:22:34;15.70;96.00
34837;DHT22;21053;50.848;4.652;2022-09-01T05:25:03;15.70;96.10
34837;DHT22;21053;50.848;4.652;2022-09-01T05:27:41;15.70;96.20
34837;DHT22;21053;50.848;4.652;2022-09-01T05:30:15;15.50;96.70
34837;DHT22;21053;50.848;4.652;2022-09-01T05:32:44;15.50;96.90
34837;DHT22;21053;50.848;4.652;2022-09-01T05:35:16;15.40;97.20
34837;DHT22;21053;50.848;4.652;2022-09-01T05:37:44;15.50;97.00
34837;DHT22;21053;50.848;4.652;2022-09-01T05:40:10;15.60;96.90
34837;DHT22;21053;50.848;4.652;2022-09-01T05:42:42;15.60;96.90
34837;DHT22;21053;50.848;4.652;2022-09-01T05:45:10;15.60;97.10
34837;DHT22;21053;50.848;4.652;2022-09-01T05:47:39;15.40;97.60
34837;DHT22;21053;50.848;4.652;2022-09-01T05:50:07;15.40;97.90
34837;DHT22;21053;50.848;4.652;2022-09-01T05:52:38;15.50;97.70
34837;DHT22;21053;50.848;4.652;2022-09-01T05:55:06;15.70;97.30
34837;DHT22;21053;50.848;4.652;2022-09-01T05:57:35;15.70;97.30
34837;DHT22;21053;50.848;4.652;2022-09-01T06:00:04;15.50;97.90
34837;DHT22;21053;50.848;4.652;2022-09-01T06:02:37;15.70;98.00
34837;DHT22;21053;50.848;4.652;2022-09-01T06:05:06;15.90;97.50
34837;DHT22;21053;50.848;4.652;2022-09-01T06:07:33;15.80;97.60
34837;DHT22;21053;50.848;4.652;2022-09-01T06:10:00;15.70;98.10
34837;DHT22;21053;50.848;4.652;2022-09-01T06:12:26;15.80;98.30
34837;DHT22;21053;50.848;4.652;2022-09-01T06:14:55;15.90;98.40
34837;DHT22;21053;50.848;4.652;2022-09-01T06:17:24;16.20;98.10
34837;DHT22;21053;50.848;4.652;2022-09-01T06:19:53;16.40;97.90
34837;DHT22;21053;50.848;4.652;2022-09-01T06:22:26;16.50;97.90
34837;DHT22;21053;50.848;4.652;2022-09-01T06:24:52;16.60;97.80
34837;DHT22;21053;50.848;4.652;2022-09-01T06:27:20;16.60;97.90
34837;DHT22;21053;50.848;4.652;2022-09-01T06:29:50;16.60;98.10
34837;DHT22;21053;50.848;4.652;2022-09-01T06:32:21;16.80;98.20
34837;DHT22;21053;50.848;4.652;2022-09-01T06:34:50;17.00;98.10
34837;DHT22;21053;50.848;4.652;2022-09-01T06:37:17;17.10;96.70
34837;DHT22;21053;50.848;4.652;2022-09-01T06:39:47;17.20;96.00
34837;DHT22;21053;50.848;4.652;2022-09-01T06:42:13;17.40;95.90
34837;DHT22;21053;50.848;4.652;2022-09-01T06:44:42;17.50;96.30
34837;DHT22;21053;50.848;4.652;2022-09-01T06:47:08;17.50;96.30
34837;DHT22;21053;50.848;4.652;2022-09-01T06:49:35;17.70;96.40
34837;DHT22;21053;50.848;4.652;2022-09-01T06:52:03;17.90;96.10
34837;DHT22;21053;50.848;4.652;2022-09-01T06:54:31;17.90;95.70
34837;DHT22;21053;50.848;4.652;2022-09-01T06:57:02;17.90;94.70
34837;DHT22;21053;50.848;4.652;2022-09-01T06:59:30;18.20;94.80
34837;DHT22;21053;50.848;4.652;2022-09-01T07:01:58;18.30;94.40
34837;DHT22;21053;50.848;4.652;2022-09-01T07:04:28;18.40;94.00
34837;DHT22;21053;50.848;4.652;2022-09-01T07:06:56;18.60;93.60
34837;DHT22;21053;50.848;4.652;2022-09-01T07:09:23;18.80;92.70
34837;DHT22;21053;50.848;4.652;2022-09-01T07:11:50;18.90;92.50
34837;DHT22;21053;50.848;4.652;2022-09-01T07:14:17;19.00;91.80
34837;DHT22;21053;50.848;4.652;2022-09-01T07:16:43;19.20;92.20
34837;DHT22;21053;50.848;4.652;2022-09-01T07:19:13;19.20;92.30
34837;DHT22;21053;50.848;4.652;2022-09-01T07:21:41;19.40;91.90
34837;DHT22;21053;50.848;4.652;2022-09-01T07:24:09;19.50;91.70
34837;DHT22;21053;50.848;4.652;2022-09-01T07:26:36;19.60;91.20
34837;DHT22;21053;50.848;4.652;2022-09-01T07:29:06;19.90;90.80
34837;DHT22;21053;50.848;4.652;2022-09-01T07:31:37;20.10;90.40
34837;DHT22;21053;50.848;4.652;2022-09-01T07:34:06;20.20;90.20
34837;DHT22;21053;50.848;4.652;2022-09-01T07:36:40;20.40;89.60
34837;DHT22;21053;50.848;4.652;2022-09-01T07:39:07;20.60;88.80
34837;DHT22;21053;50.848;4.652;2022-09-01T07:41:34;20.80;87.90
34837;DHT22;21053;50.848;4.652;2022-09-01T07:44:02;20.90;87.70
34837;DHT22;21053;50.848;4.652;2022-09-01T07:46:31;21.00;87.50
34837;DHT22;21053;50.848;4.652;2022-09-01T07:48:58;21.20;87.70
34837;DHT22;21053;50.848;4.652;2022-09-01T07:51:26;21.30;86.70
34837;DHT22;21053;50.848;4.652;2022-09-01T07:53:53;21.50;85.50
34837;DHT22;21053;50.848;4.652;2022-09-01T07:56:21;21.80;84.40
34837;DHT22;21053;50.848;4.652;2022-09-01T07:58:49;21.90;84.70
34837;DHT22;21053;50.848;4.652;2022-09-01T08:01:20;22.10;83.20
34837;DHT22;21053;50.848;4.652;2022-09-01T08:03:51;22.20;83.10
34837;DHT22;21053;50.848;4.652;2022-09-01T08:06:19;22.20;82.50
34837;DHT22;21053;50.848;4.652;2022-09-01T08:08:49;22.50;81.40
34837;DHT22;21053;50.848;4.652;2022-09-01T08:11:23;22.70;81.30
34837;DHT22;21053;50.848;4.652;2022-09-01T08:13:52;22.80;80.90
34837;DHT22;21053;50.848;4.652;2022-09-01T08:16:20;22.90;79.50
34837;DHT22;21053;50.848;4.652;2022-09-01T08:18:49;23.00;79.80
34837;DHT22;21053;50.848;4.652;2022-09-01T08:21:18;23.00;79.70
34837;DHT22;21053;50.848;4.652;2022-09-01T08:23:48;23.10;79.50
34837;DHT22;21053;50.848;4.652;2022-09-01T08:26:17;23.40;79.10
34837;DHT22;21053;50.848;4.652;2022-09-01T08:28:46;23.60;78.40
34837;DHT22;21053;50.848;4.652;2022-09-01T08:31:15;23.80;78.90
34837;DHT22;21053;50.848;4.652;2022-09-01T08:33:43;24.00;77.00
34837;DHT22;21053;50.848;4.652;2022-09-01T08:36:12;24.10;76.50
34837;DHT22;21053;50.848;4.652;2022-09-01T08:38:39;24.30;75.00
34837;DHT22;21053;50.848;4.652;2022-09-01T08:41:16;24.50;74.40
34837;DHT22;21053;50.848;4.652;2022-09-01T08:46:36;24.90;72.70
34837;DHT22;21053;50.848;4.652;2022-09-01T08:49:15;25.10;73.60
34837;DHT22;21053;50.848;4.652;2022-09-01T08:54:37;25.70;71.70
34837;DHT22;21053;50.848;4.652;2022-09-01T08:57:17;25.90;69.20
34837;DHT22;21053;50.848;4.652;2022-09-01T08:59:44;26.10;68.80
34837;DHT22;21053;50.848;4.652;2022-09-01T09:05:22;26.30;67.50
34837;DHT22;21053;50.848;4.652;2022-09-01T09:13:11;27.20;66.20
34837;DHT22;21053;50.848;4.652;2022-09-01T09:15:49;27.50;65.20
34837;DHT22;21053;50.848;4.652;2022-09-01T09:21:18;28.60;61.50
34837;DHT22;21053;50.848;4.652;2022-09-01T09:23:50;28.90;59.90
34837;DHT22;21053;50.848;4.652;2022-09-01T09:26:22;29.10;59.20
34837;DHT22;21053;50.848;4.652;2022-09-01T09:28:49;29.40;58.10
34837;DHT22;21053;50.848;4.652;2022-09-01T09:31:37;29.20;57.00
34837;DHT22;21053;50.848;4.652;2022-09-01T09:36:54;29.20;58.40
34837;DHT22;21053;50.848;4.652;2022-09-01T09:39:19;29.00;57.60
34837;DHT22;21053;50.848;4.652;2022-09-01T09:42:08;29.00;56.40
34837;DHT22;21053;50.848;4.652;2022-09-01T09:44:48;29.00;57.80
34837;DHT22;21053;50.848;4.652;2022-09-01T09:47:49;29.30;55.20
34837;DHT22;21053;50.848;4.652;2022-09-01T09:50:23;29.10;56.50
34837;DHT22;21053;50.848;4.652;2022-09-01T09:52:53;29.10;55.40
34837;DHT22;21053;50.848;4.652;2022-09-01T09:55:34;29.30;56.40
34837;DHT22;21053;50.848;4.652;2022-09-01T09:58:09;29.60;56.90
34837;DHT22;21053;50.848;4.652;2022-09-01T10:00:38;30.00;55.60
34837;DHT22;21053;50.848;4.652;2022-09-01T10:03:08;30.10;53.00
34837;DHT22;21053;50.848;4.652;2022-09-01T10:08:13;30.00;53.20
34837;DHT22;21053;50.848;4.652;2022-09-01T10:11:04;29.70;53.10
34837;DHT22;21053;50.848;4.652;2022-09-01T10:13:32;29.60;52.30
34837;DHT22;21053;50.848;4.652;2022-09-01T10:16:11;29.80;52.80
34837;DHT22;21053;50.848;4.652;2022-09-01T10:18:43;29.90;51.70
34837;DHT22;21053;50.848;4.652;2022-09-01T10:21:19;29.80;51.70
34837;DHT22;21053;50.848;4.652;2022-09-01T10:23:49;30.00;52.80
34837;DHT22;21053;50.848;4.652;2022-09-01T10:26:23;30.00;52.50
34837;DHT22;21053;50.848;4.652;2022-09-01T10:29:09;29.80;52.80
34837;DHT22;21053;50.848;4.652;2022-09-01T10:31:41;29.50;50.80
34837;DHT22;21053;50.848;4.652;2022-09-01T10:34:15;29.40;53.00
34837;DHT22;21053;50.848;4.652;2022-09-01T10:36:44;29.60;51.60
34837;DHT22;21053;50.848;4.652;2022-09-01T10:39:16;29.80;51.70
34837;DHT22;21053;50.848;4.652;2022-09-01T10:41:50;29.90;51.90
34837;DHT22;21053;50.848;4.652;2022-09-01T10:44:32;30.20;52.50
34837;DHT22;21053;50.848;4.652;2022-09-01T10:47:11;30.40;52.10
34837;DHT22;21053;50.848;4.652;2022-09-01T10:55:09;30.80;50.20
34837;DHT22;21053;50.848;4.652;2022-09-01T10:57:42;31.00;49.70
34837;DHT22;21053;50.848;4.652;2022-09-01T11:06:05;31.20;47.60
34837;DHT22;21053;50.848;4.652;2022-09-01T11:13:53;31.10;49.10
34837;DHT22;21053;50.848;4.652;2022-09-01T11:16:38;31.30;48.70
34837;DHT22;21053;50.848;4.652;2022-09-01T11:19:30;31.60;49.50
34837;DHT22;21053;50.848;4.652;2022-09-01T11:27:05;31.30;49.60
34837;DHT22;21053;50.848;4.652;2022-09-01T11:29:59;31.00;48.30
34837;DHT22;21053;50.848;4.652;2022-09-01T11:32:34;30.60;48.80
34837;DHT22;21053;50.848;4.652;2022-09-01T11:35:13;30.80;49.70
34837;DHT22;21053;50.848;4.652;2022-09-01T11:37:46;30.60;49.60
34837;DHT22;21053;50.848;4.652;2022-09-01T11:40:36;30.70;49.90
34837;DHT22;21053;50.848;4.652;2022-09-01T11:43:06;30.80;48.00
34837;DHT22;21053;50.848;4.652;2022-09-01T11:45:43;30.80;48.70
34837;DHT22;21053;50.848;4.652;2022-09-01T11:48:13;30.80;47.50
34837;DHT22;21053;50.848;4.652;2022-09-01T11:50:41;30.70;48.00
34837;DHT22;21053;50.848;4.652;2022-09-01T11:53:14;30.60;48.60
34837;DHT22;21053;50.848;4.652;2022-09-01T11:55:48;31.10;51.10
34837;DHT22;21053;50.848;4.652;2022-09-01T11:58:37;31.50;49.00
34837;DHT22;21053;50.848;4.652;2022-09-01T12:03:48;32.50;48.20
34837;DHT22;21053;50.848;4.652;2022-09-01T12:06:27;32.80;47.00
34837;DHT22;21053;50.848;4.652;2022-09-01T12:09:02;33.10;46.80
34837;DHT22;21053;50.848;4.652;2022-09-01T12:11:34;33.40;46.70
34837;DHT22;21053;50.848;4.652;2022-09-01T12:14:07;33.40;45.60
34837;DHT22;21053;50.848;4.652;2022-09-01T12:16:37;33.30;45.30
34837;DHT22;21053;50.848;4.652;2022-09-01T12:19:07;33.20;45.30
34837;DHT22;21053;50.848;4.652;2022-09-01T12:21:54;32.50;44.90
34837;DHT22;21053;50.848;4.652;2022-09-01T12:24:22;31.80;45.80
34837;DHT22;21053;50.848;4.652;2022-09-01T12:26:51;31.70;47.60
34837;DHT22;21053;50.848;4.652;2022-09-01T12:29:24;31.70;48.50
34837;DHT22;21053;50.848;4.652;2022-09-01T12:31:51;31.80;47.50
34837;DHT22;21053;50.848;4.652;2022-09-01T12:37:22;31.90;48.30
34837;DHT22;21053;50.848;4.652;2022-09-01T12:39:53;31.70;48.20
34837;DHT22;21053;50.848;4.652;2022-09-01T12:44:53;31.60;48.10
34837;DHT22;21053;50.848;4.652;2022-09-01T12:50:06;31.40;48.70
34837;DHT22;21053;50.848;4.652;2022-09-01T12:52:33;31.40;46.50
34837;DHT22;21053;50.848;4.652;2022-09-01T12:57:47;31.20;47.50
34837;DHT22;21053;50.848;4.652;2022-09-01T13:00:21;31.10;47.90
34837;DHT22;21053;50.848;4.652;2022-09-01T13:02:48;31.00;47.70
34837;DHT22;21053;50.848;4.652;2022-09-01T13:07:52;30.70;48.10
34837;DHT22;21053;50.848;4.652;2022-09-01T13:10:20;30.70;48.90
34837;DHT22;21053;50.848;4.652;2022-09-01T13:12:50;30.70;49.10
34837;DHT22;21053;50.848;4.652;2022-09-01T13:15:17;30.80;47.70
34837;DHT22;21053;50.848;4.652;2022-09-01T13:17:43;30.80;48.40
34837;DHT22;21053;50.848;4.652;2022-09-01T13:20:09;30.70;48.10
34837;DHT22;21053;50.848;4.652;2022-09-01T13:22:37;30.80;48.40
34837;DHT22;21053;50.848;4.652;2022-09-01T13:25:03;30.50;49.40
34837;DHT22;21053;50.848;4.652;2022-09-01T13:27:29;30.40;48.50
34837;DHT22;21053;50.848;4.652;2022-09-01T13:29:56;30.30;48.60
34837;DHT22;21053;50.848;4.652;2022-09-01T13:32:23;30.10;49.30
34837;DHT22;21053;50.848;4.652;2022-09-01T13:34:51;29.80;48.30
34837;DHT22;21053;50.848;4.652;2022-09-01T13:37:20;29.70;47.70
34837;DHT22;21053;50.848;4.652;2022-09-01T13:39:50;29.50;46.80
34837;DHT22;21053;50.848;4.652;2022-09-01T13:42:16;29.50;48.20
34837;DHT22;21053;50.848;4.652;2022-09-01T13:44:43;29.40;48.30
34837;DHT22;21053;50.848;4.652;2022-09-01T13:47:10;29.50;48.70
34837;DHT22;21053;50.848;4.652;2022-09-01T13:49:36;29.30;48.10
34837;DHT22;21053;50.848;4.652;2022-09-01T13:52:02;29.20;48.20
34837;DHT22;21053;50.848;4.652;2022-09-01T13:54:29;29.30;48.40
34837;DHT22;21053;50.848;4.652;2022-09-01T13:56:56;29.40;48.30
34837;DHT22;21053;50.848;4.652;2022-09-01T13:59:24;29.50;48.30
34837;DHT22;21053;50.848;4.652;2022-09-01T14:01:50;29.50;47.90
34837;DHT22;21053;50.848;4.652;2022-09-01T14:04:15;29.30;48.60
34837;DHT22;21053;50.848;4.652;2022-09-01T14:06:44;29.50;48.80
34837;DHT22;21053;50.848;4.652;2022-09-01T14:09:12;29.50;47.60
34837;DHT22;21053;50.848;4.652;2022-09-01T14:11:38;29.60;47.60
34837;DHT22;21053;50.848;4.652;2022-09-01T14:14:07;29.60;48.10
34837;DHT22;21053;50.848;4.652;2022-09-01T14:16:36;29.50;47.30
34837;DHT22;21053;50.848;4.652;2022-09-01T14:19:03;29.50;47.70
34837;DHT22;21053;50.848;4.652;2022-09-01T14:21:29;29.40;47.30
34837;DHT22;21053;50.848;4.652;2022-09-01T14:23:58;29.30;46.70
34837;DHT22;21053;50.848;4.652;2022-09-01T14:26:30;29.30;46.20
34837;DHT22;21053;50.848;4.652;2022-09-01T14:28:57;29.30;47.40
34837;DHT22;21053;50.848;4.652;2022-09-01T14:31:27;29.30;47.10
34837;DHT22;21053;50.848;4.652;2022-09-01T14:33:58;29.40;46.60
34837;DHT22;21053;50.848;4.652;2022-09-01T14:36:25;29.50;46.40
34837;DHT22;21053;50.848;4.652;2022-09-01T14:38:52;29.30;47.20
34837;DHT22;21053;50.848;4.652;2022-09-01T14:41:20;29.20;47.30
34837;DHT22;21053;50.848;4.652;2022-09-01T14:43:53;29.30;47.70
34837;DHT22;21053;50.848;4.652;2022-09-01T14:46:21;29.20;47.60
34837;DHT22;21053;50.848;4.652;2022-09-01T14:48:48;29.20;46.40
34837;DHT22;21053;50.848;4.652;2022-09-01T14:51:23;29.20;47.60
34837;DHT22;21053;50.848;4.652;2022-09-01T14:53:53;29.10;45.60
34837;DHT22;21053;50.848;4.652;2022-09-01T14:56:25;28.90;46.70
34837;DHT22;21053;50.848;4.652;2022-09-01T14:58:51;28.70;47.40
34837;DHT22;21053;50.848;4.652;2022-09-01T15:01:23;28.60;46.90
34837;DHT22;21053;50.848;4.652;2022-09-01T15:03:50;28.50;47.80
34837;DHT22;21053;50.848;4.652;2022-09-01T15:06:21;28.40;48.00
34837;DHT22;21053;50.848;4.652;2022-09-01T15:08:47;28.50;48.20
34837;DHT22;21053;50.848;4.652;2022-09-01T15:11:18;28.50;49.00
34837;DHT22;21053;50.848;4.652;2022-09-01T15:13:47;28.50;46.70
34837;DHT22;21053;50.848;4.652;2022-09-01T15:16:21;28.50;47.40
34837;DHT22;21053;50.848;4.652;2022-09-01T15:18:51;28.60;48.20
34837;DHT22;21053;50.848;4.652;2022-09-01T15:21:20;28.60;48.30
34837;DHT22;21053;50.848;4.652;2022-09-01T15:23:49;28.50;47.40
34837;DHT22;21053;50.848;4.652;2022-09-01T15:26:18;28.40;46.40
34837;DHT22;21053;50.848;4.652;2022-09-01T15:28:45;28.30;47.30
34837;DHT22;21053;50.848;4.652;2022-09-01T15:31:15;28.30;48.10
34837;DHT22;21053;50.848;4.652;2022-09-01T15:33:43;28.20;48.30
34837;DHT22;21053;50.848;4.652;2022-09-01T15:36:15;28.00;48.10
34837;DHT22;21053;50.848;4.652;2022-09-01T15:38:44;27.90;48.00
34837;DHT22;21053;50.848;4.652;2022-09-01T15:41:19;27.80;49.30
34837;DHT22;21053;50.848;4.652;2022-09-01T15:43:46;27.70;49.20
34837;DHT22;21053;50.848;4.652;2022-09-01T15:46:13;27.80;49.10
34837;DHT22;21053;50.848;4.652;2022-09-01T15:48:39;27.70;49.00
34837;DHT22;21053;50.848;4.652;2022-09-01T15:53:53;27.90;48.20
34837;DHT22;21053;50.848;4.652;2022-09-01T15:56:22;27.90;46.20
34837;DHT22;21053;50.848;4.652;2022-09-01T15:58:51;27.80;46.90
34837;DHT22;21053;50.848;4.652;2022-09-01T16:01:20;27.80;47.40
34837;DHT22;21053;50.848;4.652;2022-09-01T16:03:48;27.90;47.30
34837;DHT22;21053;50.848;4.652;2022-09-01T16:06:17;27.90;47.60
34837;DHT22;21053;50.848;4.652;2022-09-01T16:08:45;27.90;47.80
34837;DHT22;21053;50.848;4.652;2022-09-01T16:11:14;27.80;48.80
34837;DHT22;21053;50.848;4.652;2022-09-01T16:13:41;27.90;48.00
34837;DHT22;21053;50.848;4.652;2022-09-01T16:18:39;27.90;48.60
34837;DHT22;21053;50.848;4.652;2022-09-01T16:24:09;27.70;48.10
34837;DHT22;21053;50.848;4.652;2022-09-01T16:26:37;27.70;47.00
34837;DHT22;21053;50.848;4.652;2022-09-01T16:29:31;27.50;48.10
34837;DHT22;21053;50.848;4.652;2022-09-01T16:32:00;27.60;48.00
34837;DHT22;21053;50.848;4.652;2022-09-01T16:34:29;27.60;48.70
34837;DHT22;21053;50.848;4.652;2022-09-01T16:55:23;27.50;49.50
34837;DHT22;21053;50.848;4.652;2022-09-01T16:58:08;27.30;50.80
34837;DHT22;21053;50.848;4.652;2022-09-01T17:01:04;27.20;51.30
34837;DHT22;21053;50.848;4.652;2022-09-01T17:11:59;26.90;51.60
34837;DHT22;21053;50.848;4.652;2022-09-01T17:14:37;26.90;52.90
34837;DHT22;21053;50.848;4.652;2022-09-01T17:17:17;26.70;53.80
34837;DHT22;21053;50.848;4.652;2022-09-01T17:19:44;26.80;52.80
34837;DHT22;21053;50.848;4.652;2022-09-01T17:22:19;26.70;53.40
34837;DHT22;21053;50.848;4.652;2022-09-01T17:25:18;26.60;53.60
34837;DHT22;21053;50.848;4.652;2022-09-01T17:27:55;26.40;55.00
34837;DHT22;21053;50.848;4.652;2022-09-01T17:30:27;26.40;53.30